Time;durP1;ratioP1;P1;durP2;ratioP2;P2;SDS_P1;SDS_P2;PMS_P1;PMS_P2;Temp;Humidity;BMP_temperature;BMP_pressure;BME280_temperature;BME280_humidity;BME280_pressure;Samples;Min_cycle;Max_cycle;Signal;HPM_P1;HPM_P2
2021/09/08 00:00:13;;;;;;;3.20;2.20;;;;;;;12.83;100.00;97273.28;5052078;28;20320;-76
2021/09/08 00:02:40;;;;;;;1.80;1.70;;;;;;;12.70;100.00;97264.88;5051517;28;20256;-76
2021/09/08 00:05:11;;;;;;;1.97;1.80;;;;;;;12.69;100.00;97266.69;5051894;28;20198;-75
2021/09/08 00:07:38;;;;;;;2.53;1.70;;;;;;;12.73;100.00;97264.59;5051465;28;20180;-76
2021/09/08 00:10:07;;;;;;;7.47;2.60;;;;;;;12.77;100.00;97265.94;5051500;28;20613;-76
2021/09/08 00:12:35;;;;;;;2.37;2.17;;;;;;;12.66;100.00;97269.63;5051788;28;20203;-76
2021/09/08 00:15:02;;;;;;;2.47;1.97;;;;;;;12.71;100.00;97262.13;5051837;28;20201;-75
2021/09/08 00:17:29;;;;;;;3.60;2.53;;;;;;;12.68;100.00;97272.09;5051060;28;20238;-76
2021/09/08 00:19:57;;;;;;;3.50;2.00;;;;;;;12.58;100.00;97269.53;5051799;28;20591;-76
2021/09/08 00:22:25;;;;;;;3.00;1.90;;;;;;;12.56;100.00;97276.75;5051153;28;20264;-75
2021/09/08 00:24:53;;;;;;;2.40;2.20;;;;;;;12.62;100.00;97265.63;5051771;28;20200;-76
2021/09/08 00:27:20;;;;;;;4.77;1.93;;;;;;;12.74;100.00;97263.59;5050976;28;20194;-76
2021/09/08 00:29:47;;;;;;;3.13;2.27;;;;;;;12.59;100.00;97269.38;5051417;28;20233;-76
2021/09/08 00:32:14;;;;;;;2.40;2.20;;;;;;;12.40;100.00;97266.00;5051187;28;20199;-76
2021/09/08 00:34:42;;;;;;;3.23;2.20;;;;;;;12.57;100.00;97268.72;5051592;28;20590;-76
2021/09/08 00:37:09;;;;;;;1.90;1.80;;;;;;;12.48;100.00;97277.50;5050829;28;20689;-76
2021/09/08 00:39:37;;;;;;;2.47;2.27;;;;;;;12.29;100.00;97278.38;5051306;28;20695;-76
2021/09/08 00:42:12;;;;;;;3.00;2.30;;;;;;;12.47;100.00;97274.97;5051030;28;20239;-76
2021/09/08 00:44:39;;;;;;;3.60;2.67;;;;;;;12.36;100.00;97265.44;5051525;28;20209;-76
2021/09/08 00:47:06;;;;;;;3.73;2.50;;;;;;;12.27;100.00;97263.72;5050992;28;20199;-76
2021/09/08 00:49:34;;;;;;;2.70;2.03;;;;;;;12.37;100.00;97260.06;5051169;28;20579;-76
2021/09/08 00:52:04;;;;;;;2.40;2.20;;;;;;;12.46;100.00;97260.16;5050912;28;20232;-76
2021/09/08 00:54:32;;;;;;;2.30;2.10;;;;;;;12.47;100.00;97265.28;5053529;28;20186;-76
2021/09/08 00:57:04;;;;;;;2.53;2.33;;;;;;;12.45;100.00;97253.22;5054426;28;20200;-76
2021/09/08 00:59:33;;;;;;;3.37;2.07;;;;;;;12.35;100.00;97246.19;5054836;28;20194;-76
2021/09/08 01:02:04;;;;;;;3.23;1.80;;;;;;;12.42;100.00;97246.41;5054471;28;20735;-76
2021/09/08 01:04:31;;;;;;;4.00;2.40;;;;;;;12.38;100.00;97245.88;5054982;28;20185;-76
2021/09/08 01:06:59;;;;;;;2.47;2.27;;;;;;;12.33;100.00;97244.66;5054214;28;20288;-76
2021/09/08 01:09:27;;;;;;;5.33;2.77;;;;;;;12.38;100.00;97250.34;5054898;28;20221;-76
2021/09/08 01:11:54;;;;;;;2.40;2.20;;;;;;;12.49;100.00;97246.66;5054435;28;20204;-76
2021/09/08 01:14:23;;;;;;;5.37;2.40;;;;;;;12.44;100.00;97244.47;5054870;28;20194;-76
2021/09/08 01:16:51;;;;;;;3.77;2.47;;;;;;;12.47;100.00;97246.84;5054313;28;20200;-76
2021/09/08 01:19:18;;;;;;;2.30;2.10;;;;;;;12.34;100.00;97236.63;5054213;28;20230;-76
2021/09/08 01:21:46;;;;;;;3.93;2.50;;;;;;;12.27;100.00;97237.34;5054412;28;20238;-75
2021/09/08 01:24:15;;;;;;;2.97;2.33;;;;;;;12.34;100.00;97233.16;5054356;28;20196;-76
2021/09/08 01:26:43;;;;;;;4.67;2.10;;;;;;;12.35;100.00;97234.81;5054128;28;20292;-76
2021/09/08 01:29:11;;;;;;;2.30;2.10;;;;;;;12.50;100.00;97238.59;5054195;28;20642;-76
2021/09/08 01:31:39;;;;;;;3.97;2.23;;;;;;;12.27;100.00;97237.34;5053978;28;20284;-75
2021/09/08 01:34:06;;;;;;;3.63;2.30;;;;;;;12.42;100.00;97235.06;5054454;28;20259;-76
2021/09/08 01:36:38;;;;;;;3.17;2.60;;;;;;;12.22;100.00;97231.66;5054248;28;20220;-75
2021/09/08 01:39:06;;;;;;;2.33;2.07;;;;;;;12.30;100.00;97237.88;5053923;28;20681;-75
2021/09/08 01:41:35;;;;;;;2.83;2.10;;;;;;;12.26;100.00;97235.66;5054077;28;20225;-76
2021/09/08 01:44:02;;;;;;;9.03;2.90;;;;;;;12.26;100.00;97230.41;5054145;28;20222;-76
2021/09/08 01:46:30;;;;;;;2.83;2.63;;;;;;;12.39;100.00;97225.63;5053650;28;20277;-76
2021/09/08 01:48:57;;;;;;;3.17;2.60;;;;;;;12.17;100.00;97218.09;5053879;28;20194;-75
2021/09/08 01:51:24;;;;;;;5.10;2.93;;;;;;;12.18;100.00;97215.31;5053675;28;20238;-75
2021/09/08 01:53:52;;;;;;;4.23;2.07;;;;;;;12.28;100.00;97210.00;5053785;28;20194;-76
2021/09/08 01:56:19;;;;;;;2.70;2.50;;;;;;;12.16;100.00;97213.78;5053373;28;20202;-76
2021/09/08 01:58:48;;;;;;;3.03;2.53;;;;;;;12.26;100.00;97210.16;5053957;28;20674;-76
2021/09/08 02:01:15;;;;;;;3.10;2.40;;;;;;;12.35;100.00;97203.16;5053824;28;20198;-76
2021/09/08 02:03:42;;;;;;;2.20;2.00;;;;;;;12.33;100.00;97213.03;5054079;28;20275;-76
2021/09/08 02:06:23;;;;;;;3.30;2.10;;;;;;;12.46;100.00;97210.06;5052880;28;20249;-75
2021/09/08 02:08:50;;;;;;;3.93;2.33;;;;;;;12.61;100.00;97214.69;5053233;28;20193;-76
2021/09/08 02:11:17;;;;;;;3.00;2.50;;;;;;;12.49;100.00;97220.31;5053304;28;20252;-75
2021/09/08 02:13:44;;;;;;;2.40;2.20;;;;;;;12.56;100.00;97216.91;5053406;28;20197;-76
2021/09/08 02:16:15;;;;;;;5.17;2.23;;;;;;;12.47;100.00;97223.09;5053297;28;20205;-75
2021/09/08 02:18:43;;;;;;;5.37;2.47;;;;;;;12.48;100.00;97218.66;5053457;28;20199;-75
2021/09/08 02:21:10;;;;;;;4.60;2.80;;;;;;;12.36;100.00;97210.94;5053226;28;20199;-75
2021/09/08 02:23:37;;;;;;;4.23;3.00;;;;;;;12.33;100.00;97205.09;5053379;28;20547;-75
2021/09/08 02:26:05;;;;;;;2.97;2.70;;;;;;;12.40;100.00;97200.94;5053028;28;20202;-75
2021/09/08 02:28:32;;;;;;;3.03;2.40;;;;;;;12.41;100.00;97210.50;5053070;28;20190;-75
2021/09/08 02:30:59;;;;;;;4.10;2.53;;;;;;;12.37;100.00;97211.78;5053206;28;20679;-76
2021/09/08 02:33:28;;;;;;;2.97;2.70;;;;;;;12.32;100.00;97204.28;5052952;28;20194;-75
2021/09/08 02:35:56;;;;;;;3.20;2.60;;;;;;;12.52;100.00;97198.91;5052793;28;20390;-75
2021/09/08 02:38:23;;;;;;;5.77;2.40;;;;;;;12.45;100.00;97203.13;5052941;28;20203;-76
2021/09/08 02:40:50;;;;;;;3.40;2.50;;;;;;;12.31;100.00;97207.91;5052856;28;20233;-75
2021/09/08 02:43:17;;;;;;;2.63;2.43;;;;;;;12.25;100.00;97197.94;5053066;28;20275;-75
2021/09/08 02:45:44;;;;;;;5.27;2.93;;;;;;;12.08;100.00;97196.91;5052679;28;20201;-76
2021/09/08 02:48:12;;;;;;;3.83;2.60;;;;;;;12.18;100.00;97186.31;5053010;28;20644;-75
2021/09/08 02:50:40;;;;;;;3.70;2.70;;;;;;;12.32;100.00;97190.28;5052313;28;20226;-75
2021/09/08 02:53:08;;;;;;;3.67;2.67;;;;;;;12.26;100.00;97189.09;5052632;28;20208;-76
2021/09/08 02:55:35;;;;;;;3.37;2.77;;;;;;;12.12;100.00;97186.91;5052776;28;20197;-76
2021/09/08 02:58:02;;;;;;;2.73;2.53;;;;;;;12.25;100.00;97190.03;5052574;28;20202;-75
2021/09/08 03:00:29;;;;;;;2.33;2.20;;;;;;;12.27;100.00;97189.91;5052522;28;20297;-75
2021/09/08 03:02:56;;;;;;;4.17;2.40;;;;;;;12.08;100.00;97191.63;5052383;28;20261;-75
2021/09/08 03:05:24;;;;;;;3.53;2.53;;;;;;;12.27;100.00;97190.72;5052219;28;20242;-75
2021/09/08 03:07:52;;;;;;;5.57;2.70;;;;;;;12.31;100.00;97189.47;5052377;28;20688;-75
2021/09/08 03:10:20;;;;;;;2.07;1.90;;;;;;;12.29;100.00;97194.03;5051973;28;20241;-75
2021/09/08 03:12:47;;;;;;;3.07;2.40;;;;;;;12.23;100.00;97197.28;5052261;28;20198;-75
2021/09/08 03:15:14;;;;;;;5.13;2.83;;;;;;;12.16;100.00;97192.72;5052172;28;20223;-75
2021/09/08 03:17:41;;;;;;;2.40;2.20;;;;;;;11.95;100.00;97188.53;5051838;28;20204;-75
2021/09/08 03:20:10;;;;;;;3.03;2.60;;;;;;;12.04;100.00;97182.38;5052073;28;20282;-75
2021/09/08 03:22:37;;;;;;;2.87;2.67;;;;;;;11.88;100.00;97187.41;5052065;28;20798;-75
2021/09/08 03:25:07;;;;;;;2.97;2.77;;;;;;;11.89;100.00;97186.47;5052148;28;20584;-75
2021/09/08 03:27:34;;;;;;;2.90;2.60;;;;;;;11.86;100.00;97184.94;5052005;28;20204;-75
2021/09/08 03:30:02;;;;;;;2.60;2.40;;;;;;;11.88;100.00;97184.78;5052339;28;20277;-75
2021/09/08 03:32:29;;;;;;;3.03;2.80;;;;;;;11.87;100.00;97193.66;5051627;28;20293;-75
2021/09/08 03:34:56;;;;;;;4.90;3.17;;;;;;;11.93;100.00;97190.47;5052214;28;20197;-75
2021/09/08 03:37:23;;;;;;;3.03;2.40;;;;;;;11.83;100.00;97192.25;5051879;28;20665;-75
2021/09/08 03:39:51;;;;;;;4.53;3.00;;;;;;;11.56;100.00;97191.22;5052225;28;20198;-75
2021/09/08 03:42:20;;;;;;;2.60;2.40;;;;;;;11.51;100.00;97177.66;5052094;28;20194;-75
2021/09/08 03:44:47;;;;;;;3.07;2.77;;;;;;;11.46;100.00;97184.31;5051657;28;20200;-75
2021/09/08 03:47:15;;;;;;;5.90;3.30;;;;;;;11.61;100.00;97186.38;5051911;28;20204;-75
2021/09/08 03:49:45;;;;;;;10.33;4.10;;;;;;;11.71;100.00;97188.13;5036301;28;20208;-76
2021/09/08 03:52:12;;;;;;;4.73;3.30;;;;;;;11.69;100.00;97193.56;5067203;28;20614;-76
2021/09/08 03:54:40;;;;;;;4.23;3.20;;;;;;;11.64;100.00;97186.09;5051638;28;20216;-76
2021/09/08 03:57:07;;;;;;;4.53;2.93;;;;;;;11.62;100.00;97190.66;5051492;28;20204;-76
2021/09/08 03:59:36;;;;;;;5.87;3.10;;;;;;;11.54;100.00;97189.72;5051558;28;20260;-76
2021/09/08 04:02:04;;;;;;;3.63;2.97;;;;;;;11.70;100.00;97197.00;5051237;28;20233;-76
2021/09/08 04:04:31;;;;;;;4.07;2.93;;;;;;;11.62;100.00;97189.84;5049618;28;20233;-75
2021/09/08 04:06:59;;;;;;;5.20;2.97;;;;;;;11.61;100.00;97206.59;5069718;28;20204;-75
2021/09/08 04:09:26;;;;;;;8.33;3.07;;;;;;;11.60;100.00;97203.16;5071525;28;20201;-75
2021/09/08 04:11:53;;;;;;;8.57;3.87;;;;;;;11.75;100.00;97203.53;5071358;28;20681;-75
2021/09/08 04:14:20;;;;;;;3.20;3.00;;;;;;;11.41;100.00;97203.16;5071890;28;20193;-76
2021/09/08 04:16:49;;;;;;;2.80;2.60;;;;;;;11.66;100.00;97205.19;5071701;28;20703;-75
2021/09/08 04:19:16;;;;;;;3.23;2.93;;;;;;;11.58;100.00;97214.78;5071311;28;20197;-75
2021/09/08 04:21:44;;;;;;;3.23;2.93;;;;;;;11.46;100.00;97211.47;5071296;28;20201;-76
2021/09/08 04:24:11;;;;;;;7.00;3.10;;;;;;;11.50;100.00;97214.66;5071678;28;20293;-75
2021/09/08 04:26:38;;;;;;;3.87;3.47;;;;;;;11.75;100.00;97214.06;5071416;28;20197;-75
2021/09/08 04:29:05;;;;;;;6.40;3.73;;;;;;;11.65;100.00;97214.06;5073172;28;20586;-76
2021/09/08 04:31:33;;;;;;;4.83;3.80;;;;;;;11.78;100.00;97218.22;5074252;28;20194;-75
2021/09/08 04:34:06;;;;;;;4.90;3.97;;;;;;;11.63;100.00;97218.63;5073983;28;20661;-75
2021/09/08 04:36:33;;;;;;;4.33;3.83;;;;;;;11.59;100.00;97216.44;5075429;28;20654;-75
2021/09/08 04:39:00;;;;;;;2.63;2.37;;;;;;;11.53;100.00;97217.00;5075537;28;20203;-75
2021/09/08 04:41:28;;;;;;;10.20;3.97;;;;;;;11.52;100.00;97208.28;5074786;28;20200;-75
2021/09/08 04:43:55;;;;;;;4.30;3.03;;;;;;;11.80;100.00;97213.63;5075652;28;20225;-75
2021/09/08 04:46:22;;;;;;;7.20;3.20;;;;;;;11.74;100.00;97208.91;5075145;28;20189;-75
2021/09/08 04:48:49;;;;;;;6.77;3.23;;;;;;;11.63;100.00;97208.09;5075101;28;20208;-75
2021/09/08 04:51:18;;;;;;;7.10;3.77;;;;;;;11.69;100.00;97211.16;5074443;28;20233;-75
2021/09/08 04:53:45;;;;;;;3.73;2.80;;;;;;;11.87;100.00;97217.38;5075281;28;20228;-75
2021/09/08 04:56:13;;;;;;;5.60;3.00;;;;;;;12.01;100.00;97219.53;5075149;28;20279;-75
2021/09/08 04:58:40;;;;;;;4.40;2.90;;;;;;;11.86;100.00;97218.34;5074883;28;20232;-75
2021/09/08 05:01:07;;;;;;;3.17;2.87;;;;;;;11.94;100.00;97225.53;5074670;28;20193;-75
2021/09/08 05:03:34;;;;;;;6.87;3.90;;;;;;;11.98;100.00;97226.91;5074614;28;20225;-75
2021/09/08 05:06:02;;;;;;;6.27;2.73;;;;;;;12.22;100.00;97216.69;5074517;28;20198;-75
2021/09/08 05:08:30;;;;;;;8.80;2.90;;;;;;;12.40;100.00;97219.41;5075056;28;20251;-75
2021/09/08 05:10:58;;;;;;;4.67;3.23;;;;;;;12.46;100.00;97218.78;5074258;28;20201;-75
2021/09/08 05:13:25;;;;;;;3.20;2.90;;;;;;;12.74;100.00;97221.41;5074636;28;20287;-75
2021/09/08 05:15:52;;;;;;;3.83;2.90;;;;;;;12.84;100.00;97216.88;5074403;28;20597;-75
2021/09/08 05:18:19;;;;;;;4.87;2.80;;;;;;;12.88;100.00;97220.06;5074556;28;20282;-76
2021/09/08 05:20:47;;;;;;;2.87;2.43;;;;;;;12.82;100.00;97224.16;5074041;28;20207;-76
2021/09/08 05:23:14;;;;;;;3.90;2.93;;;;;;;12.79;100.00;97221.81;5074685;28;20227;-75
2021/09/08 05:25:42;;;;;;;3.13;2.53;;;;;;;12.84;100.00;97214.25;5074261;28;20194;-75
2021/09/08 05:28:11;;;;;;;4.00;2.83;;;;;;;12.81;100.00;97211.91;5074408;28;20197;-75
2021/09/08 05:30:38;;;;;;;3.43;3.00;;;;;;;12.92;100.00;97219.63;5074167;28;20197;-75
2021/09/08 05:33:06;;;;;;;4.73;3.40;;;;;;;12.98;100.00;97215.53;5074328;28;20716;-75
2021/09/08 05:35:33;;;;;;;3.70;2.83;;;;;;;13.15;100.00;97220.00;5074214;28;20248;-75
2021/09/08 05:38:00;;;;;;;2.60;2.33;;;;;;;13.22;100.00;97223.69;5074232;28;20198;-76
2021/09/08 05:40:27;;;;;;;6.00;2.43;;;;;;;13.14;100.00;97220.97;5073702;28;20209;-75
2021/09/08 05:42:56;;;;;;;3.17;2.87;;;;;;;13.18;100.00;97226.78;5074360;28;20284;-75
2021/09/08 05:45:24;;;;;;;4.50;2.57;;;;;;;13.39;100.00;97213.31;5074180;28;20280;-75
2021/09/08 05:47:52;;;;;;;6.70;2.80;;;;;;;13.32;100.00;97213.91;5073777;28;20204;-75
2021/09/08 05:50:19;;;;;;;4.23;2.40;;;;;;;13.47;100.00;97211.56;5073637;28;20725;-75
2021/09/08 05:52:46;;;;;;;3.50;2.60;;;;;;;13.49;100.00;97211.41;5073923;28;20278;-75
2021/09/08 05:55:14;;;;;;;4.67;2.37;;;;;;;13.59;100.00;97208.66;5073751;28;20205;-75
2021/09/08 05:57:41;;;;;;;2.73;2.47;;;;;;;13.74;100.00;97213.22;5073477;28;20240;-75
2021/09/08 06:00:11;;;;;;;3.33;2.73;;;;;;;13.90;100.00;97215.16;5073649;28;20208;-76
2021/09/08 06:02:38;;;;;;;4.30;2.97;;;;;;;13.89;100.00;97215.28;5073676;28;20293;-76
2021/09/08 06:05:07;;;;;;;9.87;2.97;;;;;;;13.84;100.00;97212.31;5073653;28;20721;-75
2021/09/08 06:07:34;;;;;;;7.90;3.27;;;;;;;14.05;100.00;97212.75;5073808;28;20197;-76
2021/09/08 06:10:01;;;;;;;3.30;2.40;;;;;;;14.36;100.00;97218.34;5073857;28;20225;-76
2021/09/08 06:12:28;;;;;;;4.27;2.73;;;;;;;14.57;100.00;97219.78;5073330;28;20288;-75
2021/09/08 06:14:56;;;;;;;6.00;2.40;;;;;;;14.64;100.00;97216.31;5073516;28;20224;-75
2021/09/08 06:17:24;;;;;;;3.17;2.40;;;;;;;14.50;100.00;97220.41;5073500;28;20247;-76
2021/09/08 06:19:52;;;;;;;3.60;2.37;;;;;;;14.52;100.00;97220.28;5073355;28;20205;-75
2021/09/08 06:22:19;;;;;;;2.57;2.37;;;;;;;14.54;100.00;97217.44;5072938;28;20255;-76
2021/09/08 06:24:46;;;;;;;2.77;2.57;;;;;;;14.70;100.00;97222.81;5073480;28;20221;-76
2021/09/08 06:27:13;;;;;;;3.20;2.40;;;;;;;14.94;100.00;97225.50;5073034;28;20199;-76
2021/09/08 06:29:40;;;;;;;6.13;3.40;;;;;;;15.05;100.00;97228.84;5073495;28;20197;-76
2021/09/08 06:32:08;;;;;;;4.93;2.30;;;;;;;14.99;100.00;97233.78;5072713;28;20287;-76
2021/09/08 06:34:36;;;;;;;2.70;2.20;;;;;;;15.05;100.00;97224.38;5073114;28;20283;-76
2021/09/08 06:37:04;;;;;;;3.50;2.50;;;;;;;15.22;100.00;97234.00;5072778;28;20717;-76
2021/09/08 06:39:31;;;;;;;2.43;2.23;;;;;;;15.26;100.00;97242.44;5072948;28;20727;-76
2021/09/08 06:41:58;;;;;;;3.83;2.53;;;;;;;15.66;100.00;97248.78;5072519;28;20572;-76
2021/09/08 06:44:26;;;;;;;2.77;2.10;;;;;;;16.05;100.00;97253.38;5072802;28;20225;-76
2021/09/08 06:46:53;;;;;;;2.27;1.77;;;;;;;16.15;100.00;97259.31;5072639;28;20242;-76
2021/09/08 06:49:21;;;;;;;4.77;1.87;;;;;;;16.41;100.00;97269.69;5072769;28;20239;-76
2021/09/08 06:51:50;;;;;;;3.13;2.20;;;;;;;16.30;100.00;97278.81;5071888;28;20328;-76
2021/09/08 06:54:17;;;;;;;2.57;2.10;;;;;;;16.02;100.00;97259.00;5072439;28;20285;-76
2021/09/08 06:56:45;;;;;;;3.13;2.10;;;;;;;15.95;100.00;97258.03;5072418;28;20191;-76
2021/09/08 06:59:12;;;;;;;2.17;1.97;;;;;;;15.92;100.00;97261.84;5072819;28;20282;-76
2021/09/08 07:01:39;;;;;;;4.57;2.10;;;;;;;15.87;100.00;97251.75;5072347;28;20200;-76
2021/09/08 07:04:06;;;;;;;4.37;2.57;;;;;;;15.76;100.00;97249.44;5072153;28;20795;-76
2021/09/08 07:06:33;;;;;;;4.10;2.70;;;;;;;15.71;100.00;97256.22;5072269;28;20197;-76
2021/09/08 07:09:02;;;;;;;5.07;2.37;;;;;;;15.80;100.00;97256.06;5072367;28;20201;-76
2021/09/08 07:11:29;;;;;;;3.57;2.53;;;;;;;15.99;100.00;97260.16;5072172;28;20217;-76
2021/09/08 07:13:56;;;;;;;3.33;2.47;;;;;;;16.47;100.00;97270.84;5072594;28;20194;-76
2021/09/08 07:16:24;;;;;;;1.97;1.70;;;;;;;16.24;100.00;97268.88;5071882;28;20285;-76
2021/09/08 07:18:51;;;;;;;2.80;2.00;;;;;;;16.52;100.00;97268.47;5072244;28;20245;-76
2021/09/08 07:21:18;;;;;;;4.67;2.33;;;;;;;16.43;100.00;97269.53;5072393;28;20198;-76
2021/09/08 07:23:46;;;;;;;2.77;1.90;;;;;;;16.34;100.00;97264.22;5071854;28;20201;-76
2021/09/08 07:26:14;;;;;;;1.90;1.73;;;;;;;16.20;100.00;97272.88;5071956;28;20688;-76
2021/09/08 07:28:42;;;;;;;2.63;1.93;;;;;;;17.01;100.00;97271.78;5072196;28;20257;-76
2021/09/08 07:31:09;;;;;;;2.33;2.10;;;;;;;17.75;100.00;97295.22;5071888;28;20199;-76
2021/09/08 07:33:36;;;;;;;5.27;1.73;;;;;;;18.15;100.00;97294.06;5072087;28;20677;-76
2021/09/08 07:36:04;;;;;;;5.00;2.30;;;;;;;18.23;100.00;97301.13;5071984;28;20656;-76
2021/09/08 07:38:31;;;;;;;3.77;1.87;;;;;;;18.21;100.00;97301.28;5072341;28;20641;-76
2021/09/08 07:40:58;;;;;;;2.53;2.23;;;;;;;18.47;100.00;97303.53;5072149;28;20283;-76
2021/09/08 07:43:27;;;;;;;2.17;1.97;;;;;;;18.63;100.00;97310.50;5071980;28;20583;-76
2021/09/08 07:45:54;;;;;;;2.83;1.73;;;;;;;18.11;100.00;97311.38;5071446;28;20262;-76
2021/09/08 07:48:23;;;;;;;7.07;2.27;;;;;;;18.23;100.00;97298.47;5072153;28;20200;-76
2021/09/08 07:50:50;;;;;;;5.53;1.87;;;;;;;18.93;100.00;97308.69;5071489;28;20236;-76
2021/09/08 07:53:18;;;;;;;5.73;2.23;;;;;;;19.20;100.00;97322.34;5071689;28;20287;-76
2021/09/08 07:55:45;;;;;;;2.10;1.70;;;;;;;18.82;100.00;97319.00;5071679;28;20240;-76
2021/09/08 07:58:12;;;;;;;2.00;1.80;;;;;;;18.58;100.00;97314.75;5071831;28;20205;-76
2021/09/08 08:00:41;;;;;;;2.50;2.03;;;;;;;18.98;100.00;97318.78;5071614;28;20200;-76
2021/09/08 08:03:09;;;;;;;2.13;1.93;;;;;;;19.07;100.00;97312.34;5072208;28;20579;-76
2021/09/08 08:05:36;;;;;;;2.07;1.50;;;;;;;18.88;100.00;97313.75;5075984;28;20326;-76
2021/09/08 08:08:04;;;;;;;4.33;1.70;;;;;;;19.78;100.00;97323.19;5076189;28;20229;-76
2021/09/08 08:10:31;;;;;;;2.37;2.13;;;;;;;19.82;100.00;97323.63;5075935;28;20215;-76
2021/09/08 08:12:59;;;;;;;4.23;1.67;;;;;;;19.78;100.00;97317.84;5075780;28;20291;-76
2021/09/08 08:15:27;;;;;;;2.10;1.67;;;;;;;19.82;100.00;97329.78;5075659;28;20192;-76
2021/09/08 08:17:56;;;;;;;5.87;2.30;;;;;;;19.65;100.00;97321.22;5075719;28;20666;-76
2021/09/08 08:20:23;;;;;;;2.43;1.80;;;;;;;19.86;100.00;97312.38;5075458;28;20204;-76
2021/09/08 08:22:51;;;;;;;2.40;1.60;;;;;;;19.54;100.00;97311.03;5075742;28;20571;-76
2021/09/08 08:25:20;;;;;;;1.60;1.50;;;;;;;18.97;100.00;97301.97;5075677;28;20228;-76
2021/09/08 08:27:48;;;;;;;2.80;2.13;;;;;;;19.47;100.00;97302.97;5075738;28;20299;-76
2021/09/08 08:30:17;;;;;;;2.83;1.50;;;;;;;19.77;100.00;97318.03;5075866;28;20605;-76
2021/09/08 08:32:44;;;;;;;2.37;1.50;;;;;;;19.54;100.00;97311.03;5075418;28;20213;-76
2021/09/08 08:35:14;;;;;;;1.50;1.40;;;;;;;19.84;100.00;97308.25;5075436;28;20224;-76
2021/09/08 08:37:41;;;;;;;1.87;1.67;;;;;;;19.94;100.00;97320.25;5075276;28;20193;-76
2021/09/08 08:40:12;;;;;;;2.00;1.50;;;;;;;20.34;100.00;97311.75;5075525;28;20201;-76
2021/09/08 08:42:40;;;;;;;12.00;2.00;;;;;;;20.04;100.00;97317.25;5075180;28;20231;-76
2021/09/08 08:45:09;;;;;;;1.50;1.40;;;;;;;20.33;100.00;97305.59;5075343;28;20223;-76
2021/09/08 08:47:36;;;;;;;8.87;2.10;;;;;;;21.04;100.00;97308.03;5075284;28;20197;-76
2021/09/08 08:50:04;;;;;;;3.13;1.50;;;;;;;21.16;100.00;97324.31;5074863;28;20288;-76
2021/09/08 08:52:33;;;;;;;1.67;1.57;;;;;;;20.96;100.00;97318.91;5074730;28;20250;-76
2021/09/08 08:55:00;;;;;;;2.10;1.90;;;;;;;20.30;100.00;97299.81;5075257;28;20189;-76
2021/09/08 08:57:28;;;;;;;1.80;1.70;;;;;;;19.83;100.00;97295.94;5074742;28;20235;-76
2021/09/08 08:59:55;;;;;;;3.17;2.30;;;;;;;19.79;100.00;97298.16;5074843;28;20207;-76
2021/09/08 09:02:24;;;;;;;8.87;2.23;;;;;;;19.46;100.00;97289.81;5074702;28;20288;-76
2021/09/08 09:04:53;;;;;;;2.13;1.93;;;;;;;19.51;100.00;97287.41;5074450;28;20221;-76
2021/09/08 09:07:25;;;;;;;4.47;1.73;;;;;;;19.97;100.00;97304.88;5074929;28;20201;-76
2021/09/08 09:09:56;;;;;;;4.40;2.00;;;;;;;20.04;100.00;97287.06;5074638;28;20235;-76
2021/09/08 09:12:28;;;;;;;2.63;1.90;;;;;;;20.03;100.00;97299.59;5074566;28;20295;-76
2021/09/08 09:15:00;;;;;;;2.23;2.03;;;;;;;19.85;100.00;97294.72;5073921;28;20193;-76
2021/09/08 09:17:29;;;;;;;8.07;1.93;;;;;;;19.53;100.00;97284.53;5074447;28;20658;-76
2021/09/08 09:19:57;;;;;;;2.37;1.63;;;;;;;19.44;100.00;97270.53;5074870;28;20255;-76
2021/09/08 09:22:36;;;;;;;4.83;1.83;;;;;;;19.22;100.00;97264.31;5074612;28;20201;-76
2021/09/08 09:25:06;;;;;;;2.67;2.20;;;;;;;19.30;100.00;97271.41;5074135;28;20287;-77
2021/09/08 09:27:38;;;;;;;2.27;1.67;;;;;;;19.59;100.00;97267.78;5074310;28;20229;-76
2021/09/08 09:30:08;;;;;;;3.33;2.50;;;;;;;19.65;100.00;97267.88;5074362;28;20283;-76
2021/09/08 09:32:37;;;;;;;1.70;1.60;;;;;;;20.03;100.00;97267.56;5074067;28;20230;-76
2021/09/08 09:35:05;;;;;;;2.27;1.90;;;;;;;20.28;100.00;97259.94;5074204;28;20189;-77
2021/09/08 09:37:34;;;;;;;2.73;1.70;;;;;;;20.11;100.00;97264.75;5074379;28;20280;-76
2021/09/08 09:40:07;;;;;;;2.37;1.77;;;;;;;20.28;100.00;97261.78;5074220;28;20604;-76
2021/09/08 09:42:34;;;;;;;2.10;1.70;;;;;;;20.11;100.00;97259.41;5073827;28;20207;-76
2021/09/08 09:45:04;;;;;;;2.53;1.50;;;;;;;19.79;100.00;97258.16;5074282;28;20318;-76
2021/09/08 09:47:35;;;;;;;5.07;2.00;;;;;;;20.12;100.00;97252.22;5073979;28;20193;-77
2021/09/08 09:50:06;;;;;;;5.50;1.67;;;;;;;20.31;100.00;97240.03;5073551;28;20193;-76
2021/09/08 09:52:34;;;;;;;2.10;1.90;;;;;;;20.08;100.00;97246.44;5073886;28;20185;-76
2021/09/08 09:55:02;;;;;;;1.80;1.70;;;;;;;20.06;100.00;97232.50;5074266;28;20189;-76
2021/09/08 09:57:30;;;;;;;3.07;1.57;;;;;;;20.18;100.00;97236.25;5073644;28;20205;-76
2021/09/08 09:59:58;;;;;;;3.97;1.40;;;;;;;20.77;100.00;97247.50;5074007;28;20205;-76
2021/09/08 10:02:26;;;;;;;1.53;1.33;;;;;;;21.18;100.00;97257.31;5073645;28;20220;-76
2021/09/08 10:04:54;;;;;;;3.73;1.53;;;;;;;21.33;100.00;97261.44;5073669;28;20228;-76
2021/09/08 10:07:24;;;;;;;1.40;1.30;;;;;;;21.10;100.00;97255.66;5073510;28;20590;-76
2021/09/08 10:09:55;;;;;;;2.37;1.63;;;;;;;20.82;100.00;97242.41;5073955;28;20201;-76
2021/09/08 10:12:28;;;;;;;2.20;1.90;;;;;;;21.16;100.00;97243.31;5073475;28;20268;-77
2021/09/08 10:15:00;;;;;;;1.87;1.67;;;;;;;21.67;100.00;97249.00;5073545;28;20188;-77
2021/09/08 10:17:33;;;;;;;3.03;1.50;;;;;;;21.67;100.00;97246.31;5073336;28;20182;-77
2021/09/08 10:20:06;;;;;;;3.03;1.70;;;;;;;21.26;100.00;97246.41;5073197;28;20666;-77
2021/09/08 10:22:38;;;;;;;9.10;2.27;;;;;;;21.51;100.00;97241.34;5073219;28;20197;-76
2021/09/08 10:25:10;;;;;;;2.30;1.67;;;;;;;20.94;100.00;97238.09;5073169;28;20235;-76
2021/09/08 10:27:38;;;;;;;3.00;2.20;;;;;;;21.00;100.00;97225.81;5072149;28;20189;-77
2021/09/08 10:30:08;;;;;;;2.43;1.80;;;;;;;20.93;100.00;97228.44;5073414;28;20197;-77
2021/09/08 10:32:36;;;;;;;1.40;1.30;;;;;;;20.77;100.00;97226.94;5073045;28;20247;-77
2021/09/08 10:35:12;;;;;;;5.10;1.50;;;;;;;20.88;100.00;97221.03;5073367;28;20223;-76
2021/09/08 10:37:43;;;;;;;2.97;1.70;;;;;;;20.88;100.00;97217.53;5073271;28;20197;-76
2021/09/08 10:40:11;;;;;;;4.40;2.17;;;;;;;21.08;100.00;97233.63;5072658;28;20178;-77
2021/09/08 10:42:53;;;;;;;4.17;1.60;;;;;;;20.84;100.00;97226.97;5072889;28;20665;-76
2021/09/08 10:45:24;;;;;;;5.10;1.80;;;;;;;20.86;100.00;97227.59;5072940;28;20228;-76
2021/09/08 10:47:52;;;;;;;4.47;1.83;;;;;;;21.11;100.00;97215.34;5073219;28;20185;-77
2021/09/08 10:50:41;;;;;;;3.27;1.97;;;;;;;21.11;100.00;97220.69;5072282;28;20240;-77
2021/09/08 10:53:28;;;;;;;2.00;1.77;;;;;;;21.57;100.00;97227.97;5072345;28;20685;-77
2021/09/08 10:55:56;;;;;;;2.20;1.50;;;;;;;21.39;100.00;97229.63;5073054;28;20219;-77
2021/09/08 10:58:23;;;;;;;2.43;1.73;;;;;;;21.65;100.00;97224.31;5072650;28;20288;-77
2021/09/08 11:00:52;;;;;;;2.30;1.77;;;;;;;21.49;100.00;97225.53;5072582;28;20280;-77
2021/09/08 11:03:27;;;;;;;2.13;1.97;;;;;;;21.64;100.00;97221.81;5072551;28;20732;-77
2021/09/08 11:05:57;;;;;;;2.90;1.50;;;;;;;21.45;100.00;97228.81;5072607;28;20286;-77
2021/09/08 11:08:26;;;;;;;3.20;2.03;;;;;;;21.28;100.00;97220.31;5072450;28;20196;-77
2021/09/08 11:11:07;;;;;;;3.60;3.27;;;;;;;21.77;100.00;97208.44;5072264;28;20288;-77
2021/09/08 11:13:35;;;;;;;2.43;1.80;;;;;;;22.34;100.00;97209.63;5072483;28;20226;-77
2021/09/08 11:16:15;;;;;;;1.30;1.20;;;;;;;21.96;100.00;97207.63;5072178;28;20197;-77
2021/09/08 11:18:42;;;;;;;3.27;1.87;;;;;;;21.67;100.00;97208.84;5072342;28;20192;-77
2021/09/08 11:21:09;;;;;;;5.40;1.70;;;;;;;21.79;100.00;97215.25;5072145;28;20293;-77
2021/09/08 11:23:37;;;;;;;6.20;1.97;;;;;;;22.10;100.00;97216.47;5072229;28;20289;-77
2021/09/08 11:26:07;;;;;;;3.97;2.10;;;;;;;21.97;100.00;97214.63;5071994;28;20272;-77
2021/09/08 11:28:37;;;;;;;6.80;1.57;;;;;;;21.61;100.00;97220.38;5072471;28;20200;-77